Date,TemperatureHighF,TemperatureAvgF,TemperatureLowF,DewpointHighF,DewpointAvgF,DewpointLowF,HumidityHigh,HumidityAvg,HumidityLow,PressureMaxIn,PressureMinIn,WindSpeedMaxMPH,WindSpeedAvgMPH,GustSpeedMaxMPH,PrecipitationSumIn
2012-7-15,79,79,78,69,67,66,71,68,65,30.06,30.05,1,0,4,0.00
2012-7-16,98,86,73,71,67,61,89,56,30,30.05,29.87,6,2,15,0.00
2012-7-17,100,88,77,69,66,61,73,50,30,29.89,29.83,6,3,16,0.00
2012-7-18,98,81,67,70,67,62,90,65,31,29.99,29.83,24,3,46,0.72
2012-7-19,83,74,69,71,67,63,91,79,57,30.07,29.88,7,3,18,0.02
2012-7-20,85,75,67,64,60,53,88,62,34,30.17,30.06,5,2,17,0.10
2012-7-21,88,78,65,68,61,55,80,59,43,30.18,30.07,4,1,12,0.00
2012-7-22,90,79,71,68,66,63,89,68,42,30.16,30.01,5,1,13,0.01
2012-7-23,93,84,78,73,66,60,76,56,40,30.01,29.93,5,2,13,0.00
2012-7-24,84,75,68,73,65,57,91,72,55,30.07,29.92,7,2,36,0.09
2012-7-25,97,76,68,71,62,56,84,64,31,29.98,29.59,9,4,24,0.31
2012-7-26,88,79,69,72,64,52,88,62,33,29.83,29.59,9,3,28,0.23
2012-7-27,82,74,65,62,59,55,80,62,41,30.08,29.82,8,2,19,0.00
2012-7-28,85,73,62,63,59,55,90,65,37,30.20,30.08,3,1,9,0.00
2012-7-29,81,72,64,68,60,51,83,68,41,30.15,30.03,5,1,12,0.06
2012-7-30,92,80,69,67,63,58,77,57,38,30.03,29.90,3,2,11,0.00
2012-7-31,87,77,68,67,63,58,91,65,37,30.00,29.89,6,2,16,0.25
2012-8-1,90,79,65,64,59,51,89,56,28,30.03,29.90,4,1,10,0.00
2012-8-2,92,81,68,63,60,57,76,51,33,29.94,29.84,4,1,11,0.00
2012-8-3,95,81,68,68,61,53,89,55,28,29.94,29.89,5,2,13,0.00
2012-8-4,90,76,68,69,66,64,90,74,45,29.98,29.81,11,2,30,0.27
2012-8-5,81,71,60,66,55,43,91,63,26,30.22,29.97,6,2,18,0.00
2012-8-6,83,69,54,56,50,43,90,55,25,30.23,30.06,3,1,11,0.00
2012-8-7,92,79,60,60,55,52,79,47,28,30.06,29.94,6,2,14,0.00
2012-8-8,80,71,64,67,63,59,91,77,52,30.05,29.99,3,1,9,0.28
2012-8-9,71,65,60,63,60,56,91,84,71,30.00,29.94,6,1,14,0.23
2012-8-10,74,65,56,58,51,42,90,64,33,30.06,29.96,8,4,20,0.00
2012-8-11,78,64,52,51,47,42,86,58,29,30.10,30.04,6,2,14,0.00
2012-8-12,74,64,54,58,52,47,88,66,39,30.10,30.03,3,0,8,0.04
2012-8-13,70,63,58,61,58,56,91,85,66,30.06,30.01,2,0,7,0.17
2012-8-14,82,69,55,61,56,49,92,66,32,30.03,29.94,4,1,11,0.00
2012-8-15,84,74,64,61,58,53,82,59,35,30.00,29.89,5,2,13,0.00
2012-8-16,76,69,61,65,57,50,89,67,42,30.00,29.78,6,3,22,0.32
2012-8-17,75,63,51,50,46,41,88,58,31,30.10,30.00,5,2,14,0.00
2012-8-18,77,64,49,52,46,38,91,57,25,30.10,29.99,4,1,11,0.00
2012-8-19,76,65,53,53,50,45,89,61,35,30.05,29.97,4,1,10,0.00
2012-8-20,78,65,51,55,49,37,91,62,23,30.08,30.00,4,1,11,0.00
2012-8-21,81,66,51,53,46,38,91,55,22,30.16,30.08,3,1,7,0.00
2012-8-22,86,72,55,53,48,43,72,46,24,30.18,30.07,4,1,11,0.00
2012-8-23,92,78,68,56,51,46,55,40,23,30.13,30.03,5,3,14,0.00
2012-8-24,94,79,67,56,53,43,64,43,18,30.08,29.99,5,2,12,0.00
2012-8-25,90,79,66,57,55,47,73,46,23,30.09,30.01,6,2,18,0.00
2012-8-26,75,71,67,69,64,56,91,78,52,30.07,30.02,3,1,10,0.28
2012-8-27,87,73,63,67,56,42,92,62,21,30.15,30.06,7,2,17,0.00
2012-8-28,86,73,58,62,56,51,90,60,31,30.20,30.08,6,2,12,0.00
2012-8-29,87,75,64,61,58,55,78,57,36,30.15,30.03,5,2,12,0.00
2012-8-30,91,78,64,61,58,56,81,54,31,30.08,29.96,7,3,20,0.00
2012-8-31,91,86,66,67,62,51,74,46,36,30.12,30.01,9,3,14,0.00
2012-9-1,76,70,68,64,57,52,85,63,50,30.12,30.02,7,4,18,0.19
2012-9-2,85,75,69,68,65,59,82,71,54,30.02,29.93,6,3,17,0.00
2012-9-3,93,79,66,69,64,59,89,63,35,30.00,29.91,5,1,15,0.00
2012-9-4,94,80,63,68,64,56,87,61,29,29.99,29.83,14,2,33,0.55
2012-9-5,88,73,61,65,60,53,89,66,31,30.00,29.80,7,2,19,0.22
2012-9-6,83,72,62,64,57,50,97,66,32,30.00,29.89,4,1,9,0.00
2012-9-7,73,65,55,64,60,54,97,84,68,29.97,29.80,7,2,15,0.08
2012-9-8,72,60,50,55,50,46,96,71,42,30.00,29.85,7,3,22,0.11
2012-9-9,71,60,53,55,50,44,97,72,41,30.23,29.95,6,3,17,0.00
2012-9-10,77,63,48,52,49,46,96,64,35,30.30,30.14,5,2,13,0.00
2012-9-11,83,70,57,57,54,50,79,57,36,30.19,30.07,8,4,20,0.00
2012-9-12,87,74,61,61,57,48,83,58,33,30.20,30.10,5,3,13,0.00
2012-9-13,66,58,51,52,47,42,98,68,47,30.42,30.19,11,4,17,0.27
2012-9-14,76,60,45,54,47,43,99,69,32,30.44,30.34,5,1,15,0.01
2012-9-15,80,63,47,51,46,41,96,60,25,30.39,30.19,3,1,9,0.00
2012-9-16,76,64,50,52,48,44,87,59,33,30.20,30.02,5,1,15,0.00
2012-9-17,76,62,53,61,55,48,95,81,55,30.03,29.81,7,3,17,0.16
2012-9-18,61,51,40,48,39,31,96,68,33,30.12,29.92,7,3,19,0.00
2012-9-19,74,57,39,52,42,36,88,60,34,30.13,29.83,11,4,26,0.08
2012-9-20,68,58,45,50,40,31,93,54,28,30.01,29.90,7,2,25,0.00
2012-9-21,54,50,46,49,45,36,97,83,63,30.02,29.87,4,1,11,0.31
2012-9-22,58,49,41,48,41,34,96,76,53,30.27,29.88,8,3,21,0.00
2012-9-23,60,46,33,40,34,28,98,68,31,30.37,30.27,6,1,15,0.00
2012-9-24,72,54,37,40,35,31,87,53,27,30.32,29.96,7,3,20,0.00
2012-9-25,81,64,48,53,47,40,82,57,31,29.98,29.85,3,1,9,0.00
2012-9-26,70,58,50,52,47,40,97,71,39,30.25,29.94,6,2,13,0.00
2012-9-27,63,51,39,48,43,38,97,76,51,30.33,30.25,5,1,13,0.00
2012-9-28,69,53,40,46,42,39,97,70,34,30.32,30.20,4,1,12,0.00
2012-9-29,80,61,43,47,43,39,93,58,25,30.21,30.01,5,2,14,0.00
2012-9-30,69,56,44,52,44,40,96,69,37,30.08,30.00,5,2,14,0.00
2012-10-1,67,56,42,52,44,41,97,69,40,30.03,29.90,2,0,5,0.00
2012-10-2,73,58,43,50,44,40,97,67,30,30.00,29.91,5,1,13,0.00
2012-10-3,66,58,50,56,53,49,97,84,63,30.08,29.98,3,1,6,0.00
2012-10-4,71,60,47,55,50,34,90,71,54,30.20,30.02,8,4,18,0.00
2012-10-5,51,44,38,34,29,23,76,56,36,30.24,30.15,6,3,20,0.00
2012-10-6,45,40,32,29,27,24,78,61,50,30.29,30.17,6,2,16,0.00
2012-10-7,50,42,36,29,24,20,71,49,31,30.30,30.20,4,1,12,0.00
2012-10-8,60,48,35,33,28,21,68,48,31,30.22,30.04,9,4,26,0.00
2012-10-9,62,55,41,43,39,33,94,58,45,30.04,29.87,9,5,21,0.15
2012-10-10,51,47,32,39,28,26,95,51,39,30.26,29.99,8,4,20,0.01
2012-10-11,66,50,37,40,34,28,81,57,34,30.35,30.11,8,4,20,0.01
2012-10-12,56,44,31,33,29,24,78,55,36,30.55,30.34,5,2,15,0.00
2012-10-13,64,53,43,62,50,33,97,88,65,30.33,29.83,6,3,16,0.34
2012-10-14,65,57,47,62,56,43,98,93,85,29.86,29.48,11,4,24,0.53
2012-10-15,60,48,39,43,40,36,94,75,47,30.04,29.86,7,2,14,0.00
2012-10-16,71,56,41,54,46,39,91,73,50,30.03,29.58,9,4,25,0.00
2012-10-17,67,59,51,57,52,48,96,78,63,29.58,29.35,7,4,23,0.75
2012-10-18,51,45,42,49,42,39,96,87,72,29.52,29.37,7,4,21,0.17
2012-10-19,49,45,39,45,42,38,97,92,80,29.75,29.49,4,1,12,0.04
2012-10-20,59,46,35,44,39,35,98,79,49,30.02,29.75,6,2,13,0.01
2012-10-21,69,53,39,51,45,38,95,77,51,30.11,30.00,6,2,15,0.00
2012-10-22,64,59,54,61,56,50,98,92,82,30.04,29.93,4,2,9,0.15
2012-10-23,71,63,59,66,61,58,99,94,80,29.98,29.90,4,3,13,0.11
2012-10-24,78,69,62,67,63,60,95,83,69,29.97,29.85,7,4,20,0.00
2012-10-25,71,60,41,64,55,36,94,86,74,30.15,29.68,10,6,24,0.20
2012-10-26,49,41,34,36,29,26,82,64,43,30.44,30.16,7,3,18,0.00
2012-10-27,44,36,27,29,26,23,94,68,47,30.47,30.37,6,2,16,0.00
2012-10-28,48,40,30,34,28,22,82,63,47,30.44,30.38,8,2,16,0.00
2012-10-29,50,39,29,32,26,20,90,63,31,30.45,30.22,8,3,17,0.00
2012-10-30,47,40,36,29,25,21,73,57,38,30.22,29.94,12,7,27,0.00
2012-10-31,49,38,29,32,24,16,80,59,35,29.98,29.93,9,4,19,0.00
2012-11-1,54,42,33,32,25,19,64,51,36,30.03,29.91,6,2,16,0.00
2012-11-2,46,38,29,31,28,26,92,71,48,30.27,30.03,4,2,12,0.00
2012-11-3,46,38,31,33,30,27,87,74,55,30.33,30.25,5,2,11,0.00
2012-11-4,47,38,30,31,29,27,87,72,51,30.36,30.28,3,1,9,0.00
2012-11-5,43,36,26,33,30,25,97,78,61,30.31,30.21,4,1,9,0.00
2012-11-6,39,35,29,38,33,27,97,91,77,30.21,29.97,4,2,11,0.15
2012-11-7,43,40,38,39,38,38,98,93,86,30.26,29.98,3,1,7,0.00
2012-11-8,47,41,38,39,36,34,95,81,66,30.30,30.16,5,2,12,0.00
2012-11-9,51,44,36,45,40,34,94,85,74,30.18,30.05,5,3,11,0.00
2012-11-10,66,57,49,57,51,45,94,80,65,30.08,29.88,9,5,30,0.07
2012-11-11,66,55,34,57,49,32,96,81,69,30.02,29.72,11,6,32,0.52
2012-11-12,34,28,24,32,22,18,92,77,67,30.46,30.01,10,6,24,0.00
2012-11-13,40,30,20,24,21,17,87,71,48,30.62,30.47,4,1,8,0.00
2012-11-14,46,36,30,31,28,24,82,72,53,30.60,30.47,6,3,15,0.00
2012-11-15,51,38,30,34,30,26,88,73,49,30.48,30.39,4,2,12,0.00
2012-11-16,35,32,30,29,28,27,89,85,78,30.49,30.46,1,0,2,0.00
2012-11-18,54,46,34,38,35,31,89,68,50,30.51,30.38,7,2,12,0.00
2012-11-19,55,48,42,43,39,35,79,72,61,30.39,30.17,8,2,16,0.00
2012-11-20,58,53,38,47,46,37,97,76,66,30.27,30.16,5,2,12,0.00
2012-11-21,60,46,35,47,42,35,98,86,59,30.31,30.15,7,3,15,0.01
2012-11-22,62,51,38,51,44,31,93,78,55,30.14,29.83,11,6,31,0.00
2012-11-23,38,29,26,31,19,17,75,66,61,30.35,29.97,11,6,28,0.00
2012-11-24,34,28,24,22,19,16,75,69,56,30.38,30.05,7,3,19,0.00
2012-11-25,40,33,27,26,24,22,81,70,54,30.20,29.95,5,2,14,0.00
2012-11-26,32,27,16,24,19,10,84,72,59,30.51,30.20,5,2,12,0.00
2012-11-27,33,23,10,18,12,8,89,66,45,30.55,30.36,5,2,11,0.00
2012-11-28,44,33,23,25,21,17,76,62,41,30.50,30.35,5,2,11,0.00
2012-11-29,51,33,28,35,27,24,86,79,51,30.35,30.16,4,2,9,0.00
2012-11-30,51,42,36,40,36,34,94,79,63,30.25,30.13,5,2,11,0.00
2012-12-1,58,46,33,53,43,32,97,90,81,30.22,29.94,5,3,15,0.07
2012-12-2,62,54,43,53,49,42,97,85,59,30.12,29.93,5,2,11,0.00
2012-12-3,67,57,44,61,55,43,98,91,79,30.10,29.81,7,4,19,0.21
2012-12-4,55,46,33,45,36,23,88,67,43,30.40,29.99,6,3,17,0.00
2012-12-5,37,31,23,28,22,16,86,71,59,30.55,30.30,5,2,12,0.00
2012-12-6,45,39,32,39,34,28,88,81,73,30.30,29.99,6,3,13,0.00
2012-12-7,42,39,36,40,34,29,95,81,62,30.07,30.00,4,2,9,0.04
2012-12-8,38,35,32,33,31,30,95,88,80,30.20,30.00,5,3,12,0.00
2012-12-9,38,36,33,37,34,31,97,95,83,30.17,29.82,6,3,15,0.23
2012-12-10,35,30,28,33,27,23,96,88,74,30.06,29.82,8,4,17,0.00
2012-12-11,33,28,20,25,21,17,93,78,58,30.24,30.05,7,4,21,0.00
2012-12-12,44,35,27,29,26,22,82,69,49,30.36,30.24,7,4,18,0.00
2012-12-13,35,34,33,28,27,26,75,74,74,30.33,30.32,4,3,11,0.00
2012-12-14,50,38,28,36,31,26,93,76,52,30.29,30.08,7,2,13,0.00
2012-12-15,48,43,40,46,40,34,96,88,72,30.08,29.62,9,4,20,0.43
2012-12-16,47,40,37,46,38,34,96,90,86,29.82,29.63,7,4,17,0.03
2012-12-17,37,33,28,33,29,26,93,87,81,29.85,29.78,4,1,9,0.00
2012-12-18,36,32,28,34,30,26,96,92,88,29.95,29.68,8,3,18,0.00
2012-12-19,35,33,30,34,30,28,96,90,81,30.15,29.88,6,2,15,0.04
2012-12-20,40,31,28,39,30,27,98,96,95,29.88,29.20,12,7,25,1.05
2012-12-21,28,23,14,27,20,11,95,88,76,30.33,29.68,11,5,23,0.00
2012-12-22,29,13,9,22,10,7,95,88,66,30.35,30.07,4,0,9,0.00
2012-12-23,26,21,14,23,19,12,96,91,84,30.18,30.05,4,2,10,0.00
2012-12-24,30,24,19,26,22,16,91,89,85,30.25,30.01,5,3,13,0.00
2012-12-25,24,19,13,19,15,11,93,86,76,30.47,30.26,7,3,17,0.00
2012-12-26,27,25,22,24,22,19,91,87,82,30.37,30.17,8,5,19,0.00
2012-12-27,28,25,23,24,22,19,89,85,79,30.32,30.23,6,2,13,0.00
2012-12-28,30,28,25,29,26,22,97,92,86,30.23,30.00,4,1,8,0.00
2012-12-29,29,23,13,28,20,11,97,89,84,30.34,29.99,7,4,16,0.00
2012-12-30,32,21,10,27,16,8,91,84,71,30.46,30.16,5,2,16,0.00
2012-12-31,36,26,16,26,20,10,86,78,65,30.28,30.11,9,4,21,0.00
2013-1-1,17,11,5,10,5,2,86,76,63,30.38,30.27,5,2,11,0.00